Time;durP1;ratioP1;P1;durP2;ratioP2;P2;SDS_P1;SDS_P2;PMS_P1;PMS_P2;Temp;Humidity;BMP_temperature;BMP_pressure;BME280_temperature;BME280_humidity;BME280_pressure;Samples;Min_cycle;Max_cycle;Signal;HPM_P1;HPM_P2
2022/09/28 00:00:19;;;;;;;;;1.33;1.33;;;;;15.49;68.52;99364.59;2085588;28;45685;-64
2022/09/28 00:01:24;;;;;;;;;1.33;1.00;;;;;15.51;68.50;99369.88;2085064;28;46417;-65
2022/09/28 00:02:25;;;;;;;;;0.75;0.75;;;;;15.52;68.95;99371.59;2084544;28;45784;-64
2022/09/28 00:03:26;;;;;;;;;0.33;0.33;;;;;15.52;69.05;99368.91;2086939;28;46787;-64
2022/09/28 00:04:27;;;;;;;;;0.50;0.50;;;;;15.52;68.27;99366.25;2085533;28;47449;-64
2022/09/28 00:05:27;;;;;;;;;0.00;0.00;;;;;15.50;68.17;99370.81;2084282;28;46645;-65
2022/09/28 00:06:29;;;;;;;;;0.33;0.33;;;;;15.48;68.67;99373.56;2087187;28;46277;-64
2022/09/28 00:07:29;;;;;;;;;0.00;0.00;;;;;15.47;68.58;99373.69;2088219;28;46695;-63
2022/09/28 00:08:30;;;;;;;;;2.33;1.33;;;;;15.45;68.42;99375.59;2086242;28;46060;-64
2022/09/28 00:09:30;;;;;;;;;8.33;6.00;;;;;15.43;68.41;99375.69;2070407;28;47163;-64
2022/09/28 00:10:31;;;;;;;;;1.00;1.00;;;;;15.44;68.44;99377.41;2070058;28;46486;-66
2022/09/28 00:11:32;;;;;;;;;0.00;0.00;;;;;15.44;68.25;99374.75;2090677;28;46903;-65
2022/09/28 00:12:33;;;;;;;;;1.00;1.00;;;;;15.45;68.42;99373.78;2095065;28;46649;-65
2022/09/28 00:13:34;;;;;;;;;2.50;2.50;;;;;15.45;67.92;99373.78;2085648;28;46807;-63
2022/09/28 00:14:35;;;;;;;;;0.25;0.25;;;;;15.45;68.31;99364.91;2083827;28;46376;-64
2022/09/28 00:15:36;;;;;;;;;1.25;0.75;;;;;15.46;68.37;99369.28;2079239;28;46498;-63
2022/09/28 00:16:40;;;;;;;;;5.00;5.00;;;;;15.47;68.33;99361.16;2086584;28;46490;-64
2022/09/28 00:17:43;;;;;;;;;2.75;2.00;;;;;15.48;68.19;99373.56;2086997;28;46373;-65
2022/09/28 00:18:44;;;;;;;;;1.50;1.50;;;;;15.50;68.06;99373.47;2087336;28;46683;-64
2022/09/28 00:19:45;;;;;;;;;0.25;0.25;;;;;15.51;68.32;99375.22;2085733;28;46859;-63
2022/09/28 00:20:45;;;;;;;;;2.00;2.00;;;;;15.51;68.25;99369.88;2086683;28;46450;-63
2022/09/28 00:21:46;;;;;;;;;1.67;1.33;;;;;15.50;67.79;99368.13;2086929;28;46540;-64
2022/09/28 00:22:47;;;;;;;;;2.00;2.00;;;;;15.50;68.04;99370.81;2083204;28;46746;-65
2022/09/28 00:25:10;;;;;;;;;1.00;1.00;;;;;15.46;67.85;99348.75;2085285;28;46455;-64
2022/09/28 00:26:10;;;;;;;;;2.00;1.33;;;;;15.47;68.14;99360.31;2083848;28;46747;-66
2022/09/28 00:27:11;;;;;;;;;1.33;1.33;;;;;15.45;68.14;99362.22;2086397;28;46157;-63
2022/09/28 00:28:12;;;;;;;;;1.00;1.00;;;;;15.43;67.85;99370.34;2086129;28;46595;-64
2022/09/28 00:29:32;;;;;;;;;3.33;1.00;;;;;15.42;67.73;99363.28;2077464;28;45766;-64
2022/09/28 00:30:32;;;;;;;;;2.25;2.25;;;;;15.42;67.80;99368.63;2085910;28;46344;-64
2022/09/28 00:31:34;;;;;;;;;2.00;0.67;;;;;15.42;68.21;99373.97;2083037;28;46252;-65
2022/09/28 00:32:34;;;;;;;;;2.25;2.25;;;;;15.41;67.77;99372.25;2090903;28;46712;-64
2022/09/28 00:33:35;;;;;;;;;1.00;1.00;;;;;15.41;67.41;99364.25;2086259;28;46134;-64
2022/09/28 00:34:38;;;;;;;;;3.00;0.33;;;;;15.43;67.63;99370.34;2092439;28;46845;-64
2022/09/28 00:35:39;;;;;;;;;1.75;1.75;;;;;15.43;67.67;99369.50;2094998;28;46847;-65
2022/09/28 00:36:43;;;;;;;;;2.33;2.33;;;;;15.44;67.97;99365.84;2086629;28;46480;-64
2022/09/28 00:37:43;;;;;;;;;0.25;0.25;;;;;15.44;67.90;99365.84;2088057;28;46809;-63
2022/09/28 00:38:45;;;;;;;;;1.00;1.00;;;;;15.44;67.74;99364.03;2085467;28;46584;-65
2022/09/28 00:39:47;;;;;;;;;3.25;3.25;;;;;15.44;67.65;99365.84;2082044;28;46771;-64
2022/09/28 00:40:48;;;;;;;;;3.50;2.75;;;;;15.43;67.05;99366.81;2083312;28;46557;-64
2022/09/28 00:41:49;;;;;;;;;2.50;2.00;;;;;15.42;67.32;99371.31;2085304;28;46744;-65
2022/09/28 00:42:50;;;;;;;;;2.00;1.25;;;;;15.41;67.27;99371.41;2084319;28;46928;-64
2022/09/28 00:43:51;;;;;;;;;1.00;0.33;;;;;15.42;67.27;99367.78;2087496;28;46216;-66
2022/09/28 00:44:53;;;;;;;;;4.00;1.25;;;;;15.42;67.22;99373.13;2086521;28;46387;-64
2022/09/28 00:46:10;;;;;;;;;1.25;1.25;;;;;15.39;67.32;99366.16;2088713;28;47058;-64
2022/09/28 00:47:36;;;;;;;;;1.75;1.00;;;;;15.38;66.82;99366.25;2087889;28;46816;-64
2022/09/28 00:48:45;;;;;;;;;1.75;1.75;;;;;15.35;66.79;99358.41;2086215;28;46957;-64
2022/09/28 00:50:25;;;;;;;;;1.50;1.50;;;;;15.35;67.16;99369.09;2087368;28;46834;-65
2022/09/28 00:51:26;;;;;;;;;2.75;2.00;;;;;15.34;67.22;99367.38;2062106;28;45992;-64
2022/09/28 00:52:35;;;;;;;;;4.33;2.00;;;;;15.34;67.35;99368.25;2063346;28;45564;-65
2022/09/28 00:53:39;;;;;;;;;2.00;2.00;;;;;15.34;67.33;99362.91;2064660;28;46849;-64
2022/09/28 00:54:44;;;;;;;;;1.75;1.75;;;;;15.35;67.38;99366.44;2063548;28;46742;-66
2022/09/28 00:55:49;;;;;;;;;2.00;2.00;;;;;15.35;67.25;99359.25;2063051;28;46820;-64
2022/09/28 00:56:49;;;;;;;;;2.00;2.00;;;;;15.35;66.81;99358.41;2062903;28;46531;-64
2022/09/28 00:57:55;;;;;;;;;2.33;2.33;;;;;15.34;66.98;99365.56;2063613;28;45807;-64
2022/09/28 00:58:58;;;;;;;;;1.00;1.00;;;;;15.36;66.78;99357.44;2062708;28;45618;-65
2022/09/28 01:00:00;;;;;;;;;0.25;0.25;;;;;15.37;66.55;99359.16;2064548;28;46561;-64
2022/09/28 01:01:02;;;;;;;;;1.75;1.75;;;;;15.34;67.06;99362.03;2055062;28;45226;-64
2022/09/28 01:02:02;;;;;;;;;3.25;1.50;;;;;15.34;66.98;99370.91;2054810;28;46563;-64
2022/09/28 01:03:03;;;;;;;;;0.00;0.00;;;;;15.35;67.12;99364.63;2064514;28;46346;-64
2022/09/28 01:04:04;;;;;;;;;1.00;1.00;;;;;15.34;66.78;99365.56;2057300;28;46312;-64
2022/09/28 01:05:09;;;;;;;;;1.75;1.75;;;;;15.33;66.78;99361.19;2062527;28;46408;-65
2022/09/28 01:06:14;;;;;;;;;4.50;3.00;;;;;15.35;67.22;99358.41;2063283;28;46651;-66
2022/09/28 01:07:16;;;;;;;;;1.00;1.00;;;;;15.35;66.64;99355.72;2059418;28;45904;-64
2022/09/28 01:08:20;;;;;;;;;1.00;1.00;;;;;15.36;66.98;99360.13;2062975;28;46565;-64
2022/09/28 01:09:21;;;;;;;;;1.75;1.75;;;;;15.37;67.11;99357.34;2062958;28;46908;-64
2022/09/28 01:10:21;;;;;;;;;3.33;3.33;;;;;15.37;67.13;99360.03;2063902;28;46372;-66
2022/09/28 01:11:23;;;;;;;;;0.67;0.67;;;;;15.38;67.27;99360.91;2061953;28;46520;-65
2022/09/28 01:12:24;;;;;;;;;0.50;0.00;;;;;15.37;66.67;99360.03;2061142;28;46756;-65
2022/09/28 01:13:25;;;;;;;;;2.67;2.00;;;;;15.37;66.97;99362.69;2056369;28;46733;-65
2022/09/28 01:14:25;;;;;;;;;2.00;1.75;;;;;15.37;67.02;99359.16;2059676;28;45736;-65
2022/09/28 01:15:28;;;;;;;;;2.33;2.00;;;;;15.37;66.64;99357.34;2061394;28;46731;-65
2022/09/28 01:16:49;;;;;;;;;1.25;1.25;;;;;15.36;66.79;99358.31;2055789;28;46683;-67
2022/09/28 01:18:05;;;;;;;;;1.00;1.00;;;;;15.36;66.70;99360.13;2061592;28;47144;-64
2022/09/28 01:19:35;;;;;;;;;1.50;1.50;;;;;15.36;67.20;99357.44;2065195;28;45424;-64
2022/09/28 01:21:06;;;;;;;;;1.25;1.00;;;;;15.36;67.00;99354.78;2064509;28;46992;-65
2022/09/28 01:22:29;;;;;;;;;2.50;1.75;;;;;15.36;67.25;99354.78;2061799;28;46567;-65
2022/09/28 01:23:48;;;;;;;;;1.75;1.75;;;;;15.36;67.04;99354.78;2061262;28;46545;-64
2022/09/28 01:24:59;;;;;;;;;2.50;2.50;;;;;15.35;66.68;99358.41;2061625;28;46484;-65
2022/09/28 01:26:35;;;;;;;;;1.50;1.50;;;;;15.33;66.59;99347.81;2062493;28;46099;-64
2022/09/28 01:27:38;;;;;;;;;1.00;1.00;;;;;15.33;66.98;99350.50;2059335;28;46617;-65
2022/09/28 01:28:42;;;;;;;;;1.75;1.50;;;;;15.30;67.09;99343.53;2085012;28;46705;-64
2022/09/28 01:30:06;;;;;;;;;2.00;2.00;;;;;15.30;67.13;99345.34;2088248;28;45339;-66
2022/09/28 01:31:11;;;;;;;;;3.00;2.50;;;;;15.30;67.29;99340.00;2095724;28;46833;-63
2022/09/28 01:32:24;;;;;;;;;2.00;1.00;;;;;15.30;67.40;99343.53;2102937;28;46701;-66
2022/09/28 01:33:31;;;;;;;;;1.75;1.75;;;;;15.30;67.40;99340.84;2095207;28;46245;-65
2022/09/28 01:34:46;;;;;;;;;2.00;1.75;;;;;15.31;67.18;99345.25;2091992;28;46361;-66
2022/09/28 01:35:55;;;;;;;;;3.00;1.75;;;;;15.31;67.09;99345.25;2100155;28;46532;-65
2022/09/28 01:37:03;;;;;;;;;1.50;1.50;;;;;15.32;67.25;99343.44;2096863;28;46714;-64
2022/09/28 01:38:08;;;;;;;;;1.50;1.50;;;;;15.29;67.27;99336.47;2097389;28;46729;-65
2022/09/28 01:39:15;;;;;;;;;3.00;1.25;;;;;15.28;67.40;99348.13;2098931;28;46996;-65
2022/09/28 01:40:16;;;;;;;;;1.75;1.75;;;;;15.28;66.93;99349.94;2090224;28;46829;-65
2022/09/28 01:41:19;;;;;;;;;1.00;1.00;;;;;15.27;67.30;99351.75;2095235;28;46367;-65
2022/09/28 01:42:26;;;;;;;;;2.00;0.75;;;;;15.28;67.71;99339.25;2096174;28;46809;-65
2022/09/28 01:43:28;;;;;;;;;1.00;1.00;;;;;15.27;67.54;99342.88;2096293;28;46356;-66
2022/09/28 01:44:38;;;;;;;;;1.75;1.75;;;;;15.26;67.27;99346.50;2095409;28;46629;-64
2022/09/28 01:46:20;;;;;;;;;2.25;2.25;;;;;15.25;67.72;99347.47;2096722;28;46637;-65
2022/09/28 01:47:25;;;;;;;;;3.50;3.00;;;;;15.25;67.47;99344.78;2079172;28;46954;-65
2022/09/28 01:48:32;;;;;;;;;2.75;2.75;;;;;15.25;67.33;99350.13;2079914;28;46708;-64
2022/09/28 01:49:38;;;;;;;;;2.00;2.00;;;;;15.24;67.68;99351.91;2081487;28;46727;-66
2022/09/28 01:50:42;;;;;;;;;1.50;0.75;;;;;15.25;67.59;99347.47;2078715;28;46391;-65
2022/09/28 01:51:53;;;;;;;;;2.00;2.00;;;;;15.25;67.40;99336.78;2077296;28;46685;-65
2022/09/28 01:53:00;;;;;;;;;1.50;1.50;;;;;15.23;67.20;99339.50;2079373;28;46739;-64
2022/09/28 01:54:08;;;;;;;;;1.75;1.75;;;;;15.23;67.44;99333.31;2077929;28;46978;-66
2022/09/28 01:55:17;;;;;;;;;2.00;2.00;;;;;15.23;67.72;99336.84;2079434;28;45688;-64
2022/09/28 01:56:28;;;;;;;;;1.75;1.25;;;;;15.24;67.64;99335.88;2079837;28;46860;-65
2022/09/28 01:57:44;;;;;;;;;3.00;2.00;;;;;15.26;67.61;99342.00;2078001;28;46748;-64
2022/09/28 01:58:54;;;;;;;;;2.00;2.00;;;;;15.25;67.81;99329.59;2075284;28;46891;-65
2022/09/28 02:00:01;;;;;;;;;2.00;2.00;;;;;15.28;67.79;99336.56;2079521;28;46697;-64
2022/09/28 02:01:12;;;;;;;;;4.00;3.00;;;;;15.27;67.71;99335.72;2077382;28;45896;-65
2022/09/28 02:02:17;;;;;;;;;3.25;2.00;;;;;15.27;67.50;99337.53;2073737;28;46560;-65
2022/09/28 02:03:24;;;;;;;;;4.50;2.00;;;;;15.26;67.74;99335.81;2080116;28;45651;-64
2022/09/28 02:04:34;;;;;;;;;2.75;2.00;;;;;15.24;68.00;99332.34;2083387;28;46505;-65
2022/09/28 02:05:37;;;;;;;;;3.25;2.25;;;;;15.24;67.84;99335.03;2081880;28;46418;-65
2022/09/28 02:06:48;;;;;;;;;2.00;1.00;;;;;15.23;67.48;99328.81;2077226;28;46558;-65
2022/09/28 02:07:58;;;;;;;;;2.75;2.75;;;;;15.23;67.40;99327.97;2081686;28;46012;-66
2022/09/28 02:09:05;;;;;;;;;1.50;1.50;;;;;15.21;67.61;99333.41;2081800;28;47094;-65
2022/09/28 02:10:12;;;;;;;;;4.75;3.50;;;;;15.19;67.47;99323.78;2072483;28;46820;-64
2022/09/28 02:11:15;;;;;;;;;4.50;2.00;;;;;15.18;68.15;99328.25;2078448;28;46844;-63
2022/09/28 02:12:25;;;;;;;;;3.50;2.25;;;;;15.17;68.10;99318.53;2080090;28;46969;-65
2022/09/28 02:13:34;;;;;;;;;2.50;2.50;;;;;15.17;67.77;99325.69;2072120;28;46361;-65
2022/09/28 02:14:38;;;;;;;;;2.00;2.00;;;;;15.17;68.16;99329.22;2080364;28;47442;-65
2022/09/28 02:15:45;;;;;;;;;1.00;1.00;;;;;15.18;67.84;99333.59;2082940;28;46867;-64
2022/09/28 02:16:50;;;;;;;;;2.25;1.50;;;;;15.18;67.85;99336.28;2077494;28;47127;-64
2022/09/28 02:17:51;;;;;;;;;3.25;3.25;;;;;15.18;67.76;99328.25;2075978;28;46461;-64
2022/09/28 02:18:51;;;;;;;;;2.00;2.00;;;;;15.19;67.64;99331.78;2078957;28;46128;-65
2022/09/28 02:19:52;;;;;;;;;2.00;2.00;;;;;15.19;67.49;99329.97;2079763;28;46844;-64
2022/09/28 02:21:04;;;;;;;;;2.33;1.67;;;;;15.20;67.65;99334.38;2074822;28;46284;-67
2022/09/28 02:22:22;;;;;;;;;1.50;1.50;;;;;15.20;67.73;99325.50;2081053;28;45937;-66
2022/09/28 02:23:25;;;;;;;;;2.00;2.00;;;;;15.22;67.72;99328.91;2081960;28;46430;-66
2022/09/28 02:24:44;;;;;;;;;1.50;1.50;;;;;15.23;68.12;99327.97;2089578;28;46581;-65
2022/09/28 02:26:00;;;;;;;;;1.75;1.75;;;;;15.23;67.74;99325.28;2096118;28;47102;-65
2022/09/28 02:27:11;;;;;;;;;3.75;1.50;;;;;15.23;68.05;99327.97;2100935;28;46855;-64
2022/09/28 02:28:13;;;;;;;;;1.50;1.00;;;;;15.22;67.81;99323.56;2092820;28;46775;-64
2022/09/28 02:29:13;;;;;;;;;3.00;3.00;;;;;15.22;67.90;99320.91;2098500;28;46726;-65
2022/09/28 02:30:14;;;;;;;;;2.33;2.00;;;;;15.21;68.00;99314.69;2099438;28;46710;-64
2022/09/28 02:31:14;;;;;;;;;1.33;1.00;;;;;15.23;67.99;99322.63;2087415;28;45723;-64
2022/09/28 02:32:18;;;;;;;;;5.00;3.33;;;;;15.24;68.09;99319.00;2091228;28;46542;-65
2022/09/28 02:33:24;;;;;;;;;2.50;1.75;;;;;15.24;67.76;99316.31;2095461;28;46438;-65
2022/09/28 02:34:25;;;;;;;;;1.75;1.75;;;;;15.23;67.86;99318.13;2096979;28;46442;-64
2022/09/28 02:35:25;;;;;;;;;3.00;2.67;;;;;15.23;67.97;99323.47;2101315;28;46746;-64
2022/09/28 02:36:27;;;;;;;;;2.00;2.00;;;;;15.23;67.32;99317.28;2097087;28;46388;-64
2022/09/28 02:37:28;;;;;;;;;1.75;1.00;;;;;15.22;67.88;99323.56;2094451;28;46641;-64
2022/09/28 02:38:29;;;;;;;;;1.00;1.00;;;;;15.24;67.66;99319.84;2096099;28;46933;-66
2022/09/28 02:39:30;;;;;;;;;2.75;1.75;;;;;15.24;67.36;99308.28;2095123;28;46782;-64
2022/09/28 02:40:33;;;;;;;;;5.67;3.67;;;;;15.26;67.68;99312.63;2093293;28;46531;-65
2022/09/28 02:42:18;;;;;;;;;3.00;1.25;;;;;15.27;67.66;99305.47;2093776;28;46854;-64
2022/09/28 02:43:39;;;;;;;;;1.25;1.25;;;;;15.24;67.71;99308.28;2085224;28;46798;-65
2022/09/28 02:45:25;;;;;;;;;2.25;2.25;;;;;15.23;67.48;99315.47;2088985;28;46332;-64
2022/09/28 02:46:37;;;;;;;;;3.00;2.75;;;;;15.23;67.60;99314.59;2076734;28;47015;-64
2022/09/28 02:47:45;;;;;;;;;1.75;1.75;;;;;15.21;67.84;99316.50;2079215;28;48516;-64
2022/09/28 02:49:04;;;;;;;;;2.50;2.25;;;;;15.19;67.77;99313.94;2076994;28;46834;-64
2022/09/28 02:50:25;;;;;;;;;2.00;2.00;;;;;15.19;67.42;99313.09;2074926;28;46515;-65
2022/09/28 02:51:30;;;;;;;;;1.00;1.00;;;;;15.18;67.50;99312.22;2077986;28;46592;-64
2022/09/28 02:52:51;;;;;;;;;1.00;1.00;;;;;15.18;67.43;99308.69;2079373;28;45961;-64
2022/09/28 02:54:11;;;;;;;;;2.50;2.50;;;;;15.17;67.50;99315.84;2078902;28;46693;-65
2022/09/28 02:55:32;;;;;;;;;2.75;2.00;;;;;15.19;67.25;99315.75;2073646;28;47038;-64
2022/09/28 02:56:50;;;;;;;;;4.00;3.75;;;;;15.19;67.75;99321.97;2071323;28;45987;-66
2022/09/28 02:58:13;;;;;;;;;2.00;2.00;;;;;15.19;67.65;99313.09;2078531;28;46049;-65
2022/09/28 02:59:32;;;;;;;;;2.00;1.75;;;;;15.19;67.43;99316.63;2077375;28;46795;-64
2022/09/28 03:00:42;;;;;;;;;2.25;2.25;;;;;15.18;67.17;99317.56;2074328;28;46151;-64
2022/09/28 03:02:21;;;;;;;;;1.00;1.00;;;;;15.19;67.52;99319.28;2076582;28;45692;-65
2022/09/28 03:03:43;;;;;;;;;2.25;2.00;;;;;15.16;67.27;99314.16;2051529;28;46433;-65
2022/09/28 03:04:49;;;;;;;;;3.50;1.75;;;;;15.15;67.66;99315.09;2058580;28;46653;-65
2022/09/28 03:06:02;;;;;;;;;1.50;1.50;;;;;15.14;67.58;99313.38;2057692;28;46520;-65
2022/09/28 03:07:30;;;;;;;;;2.50;2.50;;;;;15.13;67.63;99316.16;2054022;28;46201;-64
2022/09/28 03:08:43;;;;;;;;;2.75;2.25;;;;;15.13;67.20;99322.38;2051322;28;46945;-65
2022/09/28 03:10:16;;;;;;;;;4.00;3.00;;;;;15.13;67.09;99321.50;2046237;28;46407;-64
2022/09/28 03:11:22;;;;;;;;;2.00;1.00;;;;;15.11;67.35;99321.56;2037802;28;46718;-65
2022/09/28 03:12:23;;;;;;;;;0.75;0.25;;;;;15.11;67.60;99320.72;2040633;28;46580;-65
2022/09/28 03:13:26;;;;;;;;;2.25;2.25;;;;;15.11;67.38;99324.25;2040066;28;46577;-64
2022/09/28 03:14:26;;;;;;;;;2.25;2.25;;;;;15.10;67.24;99319.84;2038202;28;46435;-65
2022/09/28 03:15:32;;;;;;;;;1.67;1.67;;;;;15.10;67.36;99321.66;2040295;28;46898;-65
2022/09/28 03:16:32;;;;;;;;;2.00;2.00;;;;;15.08;67.17;99321.78;2040264;28;46151;-63
2022/09/28 03:17:32;;;;;;;;;2.67;1.67;;;;;15.10;67.60;99329.69;2038753;28;46444;-65
2022/09/28 03:18:33;;;;;;;;;2.33;2.33;;;;;15.11;67.14;99326.91;2040277;28;46320;-64
2022/09/28 03:19:33;;;;;;;;;1.00;1.00;;;;;15.12;66.96;99327.78;2042043;28;46647;-64
2022/09/28 03:20:34;;;;;;;;;4.00;2.00;;;;;15.11;67.14;99329.59;2045045;28;46452;-64
2022/09/28 03:21:34;;;;;;;;;2.00;1.67;;;;;15.13;67.37;99329.53;2041619;28;46208;-64
2022/09/28 03:22:34;;;;;;;;;1.00;1.00;;;;;15.13;67.17;99324.19;2044078;28;46657;-65
2022/09/28 03:23:35;;;;;;;;;1.33;1.33;;;;;15.13;67.54;99324.19;2044439;28;46502;-65
2022/09/28 03:24:35;;;;;;;;;1.00;1.00;;;;;15.14;67.67;99320.53;2043496;28;45498;-65
2022/09/28 03:25:35;;;;;;;;;0.67;0.67;;;;;15.16;67.68;99318.63;2045314;28;46966;-65
2022/09/28 03:26:38;;;;;;;;;1.00;1.00;;;;;15.17;67.24;99323.03;2043419;28;45972;-65
2022/09/28 03:27:39;;;;;;;;;2.25;1.75;;;;;15.17;67.02;99318.53;2045060;28;46357;-64
2022/09/28 03:28:40;;;;;;;;;3.67;2.67;;;;;15.17;66.89;99320.34;2038767;28;45833;-63
2022/09/28 03:29:40;;;;;;;;;2.00;2.00;;;;;15.16;67.43;99322.16;2041586;28;45925;-64
2022/09/28 03:30:42;;;;;;;;;2.67;2.67;;;;;15.16;66.98;99313.28;2030232;29;46483;-65
2022/09/28 03:31:43;;;;;;;;;3.50;2.75;;;;;15.16;66.87;99321.31;2034934;28;45677;-64
2022/09/28 03:32:43;;;;;;;;;2.67;2.67;;;;;15.15;66.92;99316.91;2044573;28;46356;-64
2022/09/28 03:33:44;;;;;;;;;1.67;1.67;;;;;15.15;67.46;99324.94;2038611;28;46537;-65
2022/09/28 03:34:44;;;;;;;;;2.67;2.67;;;;;15.15;67.18;99323.13;2039388;28;46301;-66
2022/09/28 03:35:46;;;;;;;;;2.33;2.33;;;;;15.16;66.96;99323.97;2038917;28;46807;-64
2022/09/28 03:36:47;;;;;;;;;1.75;1.75;;;;;15.15;67.01;99324.94;2030398;28;46775;-64
2022/09/28 03:37:47;;;;;;;;;4.67;3.00;;;;;15.15;67.32;99327.59;2032413;28;46515;-66
2022/09/28 03:38:47;;;;;;;;;1.33;1.33;;;;;15.15;67.02;99328.47;2037894;28;45040;-64
2022/09/28 03:39:48;;;;;;;;;2.00;2.00;;;;;15.15;67.10;99330.28;2041121;28;46610;-64
2022/09/28 03:40:56;;;;;;;;;2.67;2.67;;;;;15.15;66.79;99327.59;2043749;28;46641;-64
2022/09/28 03:41:59;;;;;;;;;2.75;2.75;;;;;15.15;66.70;99335.63;2062484;28;46605;-64
2022/09/28 03:43:00;;;;;;;;;1.00;1.00;;;;;15.14;66.71;99333.91;2061936;28;46578;-65
2022/09/28 03:44:00;;;;;;;;;3.67;2.33;;;;;15.14;66.79;99333.91;2061856;28;46722;-64
2022/09/28 03:45:00;;;;;;;;;2.67;2.67;;;;;15.12;66.58;99334.00;2065132;28;46652;-65
2022/09/28 03:46:01;;;;;;;;;1.33;1.33;;;;;15.11;66.79;99334.94;2064989;28;46446;-65
2022/09/28 03:47:02;;;;;;;;;2.00;2.00;;;;;15.12;66.89;99341.13;2062505;28;46978;-63
2022/09/28 03:48:03;;;;;;;;;3.00;3.00;;;;;15.12;66.95;99331.34;2062033;28;46722;-64
2022/09/28 03:49:03;;;;;;;;;1.67;1.67;;;;;15.12;67.04;99334.00;2092729;28;45823;-64
2022/09/28 03:50:05;;;;;;;;;1.33;1.33;;;;;15.12;66.88;99339.34;2095293;28;45155;-64
2022/09/28 03:51:08;;;;;;;;;3.00;2.00;;;;;15.12;66.92;99335.78;2100865;28;46831;-66
2022/09/28 03:52:08;;;;;;;;;2.25;2.25;;;;;15.13;67.00;99345.56;2092906;28;46004;-63
2022/09/28 03:53:09;;;;;;;;;0.33;0.33;;;;;15.13;67.12;99351.75;2100348;28;45871;-66
2022/09/28 03:54:09;;;;;;;;;3.00;3.00;;;;;15.15;66.96;99349.84;2099990;28;46426;-65
2022/09/28 03:55:10;;;;;;;;;2.67;1.67;;;;;15.13;67.09;99341.06;2097011;28;45703;-64
2022/09/28 03:56:12;;;;;;;;;1.33;1.33;;;;;15.12;66.98;99341.13;2103061;28;46517;-64
2022/09/28 03:57:12;;;;;;;;;3.00;3.00;;;;;15.11;66.77;99350.97;2097369;28;46384;-64
2022/09/28 03:58:13;;;;;;;;;1.33;1.33;;;;;15.12;66.56;99346.47;2100985;28;46685;-65
2022/09/28 03:59:13;;;;;;;;;4.67;4.67;;;;;15.11;66.91;99350.97;2102099;28;45303;-65
2022/09/28 04:00:13;;;;;;;;;2.33;2.33;;;;;15.12;66.99;99344.69;2100071;28;46984;-66
2022/09/28 04:01:17;;;;;;;;;4.00;2.33;;;;;15.13;67.05;99343.75;2098452;28;46228;-64
2022/09/28 04:02:17;;;;;;;;;1.50;1.50;;;;;15.14;66.68;99334.75;2093801;28;46399;-65
2022/09/28 04:03:17;;;;;;;;;0.33;0.33;;;;;15.14;66.90;99337.44;2095795;28;46868;-65
2022/09/28 04:04:18;;;;;;;;;1.67;1.33;;;;;15.15;67.03;99336.47;2096064;28;45859;-65
2022/09/28 04:05:18;;;;;;;;;2.33;2.33;;;;;15.15;66.77;99332.94;2095217;28;45911;-65
2022/09/28 04:06:18;;;;;;;;;2.33;2.33;;;;;15.16;66.87;99342.69;2096056;28;45902;-66
2022/09/28 04:07:19;;;;;;;;;1.67;1.67;;;;;15.15;66.78;99349.84;2095574;28;46241;-64
2022/09/28 04:08:19;;;;;;;;;4.33;2.33;;;;;15.16;67.04;99342.69;2094872;28;46323;-66
2022/09/28 04:09:19;;;;;;;;;4.33;3.00;;;;;15.14;67.28;99348.13;2093706;28;46883;-65
2022/09/28 04:10:20;;;;;;;;;2.00;2.00;;;;;15.16;67.08;99350.69;2093161;28;46802;-65
2022/09/28 04:11:20;;;;;;;;;2.33;1.67;;;;;15.14;67.16;99347.28;2096511;28;46997;-65
2022/09/28 04:12:20;;;;;;;;;4.33;3.00;;;;;15.14;67.07;99347.28;2095302;28;46177;-67
2022/09/28 04:13:20;;;;;;;;;3.33;2.33;;;;;15.13;66.73;99348.22;2095542;28;46245;-65
2022/09/28 04:14:21;;;;;;;;;2.33;2.33;;;;;15.12;67.24;99344.69;2095328;28;45645;-67
2022/09/28 04:15:24;;;;;;;;;2.67;1.00;;;;;15.12;66.57;99347.38;2095692;28;46320;-65
2022/09/28 04:16:25;;;;;;;;;2.25;2.25;;;;;15.12;67.15;99346.47;2097615;28;45490;-67
2022/09/28 04:17:26;;;;;;;;;4.50;2.75;;;;;15.11;67.14;99345.63;2091943;28;46890;-65
2022/09/28 04:18:27;;;;;;;;;3.00;3.00;;;;;15.11;67.07;99348.28;2097161;28;46302;-65
2022/09/28 04:19:27;;;;;;;;;2.50;2.50;;;;;15.10;66.72;99346.56;2099018;28;46527;-66
2022/09/28 04:20:27;;;;;;;;;3.00;2.33;;;;;15.09;67.04;99346.69;2099331;28;46311;-65
2022/09/28 04:21:28;;;;;;;;;2.67;2.67;;;;;15.07;66.96;99354.78;2090366;28;46193;-65
2022/09/28 04:22:29;;;;;;;;;1.67;1.67;;;;;15.06;66.87;99345.06;2099920;28;46316;-65
2022/09/28 04:23:29;;;;;;;;;2.00;2.00;;;;;15.06;66.99;99346.88;2093513;28;46452;-64
2022/09/28 04:24:29;;;;;;;;;3.33;1.67;;;;;15.04;67.19;99346.97;2094409;28;48626;-65
2022/09/28 04:25:30;;;;;;;;;3.00;3.00;;;;;15.03;67.16;99347.94;2099643;28;45575;-67
2022/09/28 04:26:30;;;;;;;;;4.00;4.00;;;;;15.04;66.90;99349.66;2091460;28;45192;-65
2022/09/28 04:30:09;;;;;;;;;3.50;2.00;;;;;15.04;67.28;99356.81;2099189;28;46440;-65
2022/09/28 04:31:12;;;;;;;;;3.25;3.00;;;;;15.04;67.05;99346.97;2094899;28;46753;-65
2022/09/28 04:32:12;;;;;;;;;2.50;2.50;;;;;15.04;67.69;99346.97;2100522;28;46996;-65
2022/09/28 04:33:12;;;;;;;;;3.00;2.33;;;;;15.05;67.80;99348.69;2097258;28;46643;-66
2022/09/28 04:34:16;;;;;;;;;3.00;3.00;;;;;15.05;67.28;99345.16;2089474;28;46434;-66
2022/09/28 04:35:16;;;;;;;;;3.00;2.75;;;;;15.05;67.49;99351.34;2091761;28;45709;-65
2022/09/28 04:36:18;;;;;;;;;4.00;3.00;;;;;15.04;67.01;99351.47;2095971;28;46615;-65
2022/09/28 04:37:18;;;;;;;;;2.50;2.50;;;;;15.02;66.95;99349.75;2090522;28;46486;-64
2022/09/28 04:38:19;;;;;;;;;2.67;2.00;;;;;15.03;67.34;99361.28;2091697;28;45694;-64
2022/09/28 04:39:20;;;;;;;;;2.67;2.67;;;;;15.02;67.07;99360.44;2095878;28;46270;-65
2022/09/28 04:40:20;;;;;;;;;3.50;3.50;;;;;15.04;66.93;99362.16;2103848;28;46340;-64
2022/09/28 04:41:21;;;;;;;;;3.00;3.00;;;;;15.04;67.17;99365.66;2095573;28;46809;-66
2022/09/28 04:42:21;;;;;;;;;3.00;2.00;;;;;15.04;67.16;99364.81;2086391;28;46621;-64
2022/09/28 04:43:21;;;;;;;;;2.67;2.67;;;;;15.03;66.99;99363.97;2087244;28;46284;-65
2022/09/28 04:44:22;;;;;;;;;3.67;2.33;;;;;15.05;67.17;99369.19;2095926;28;47020;-65
2022/09/28 04:45:25;;;;;;;;;4.33;2.00;;;;;15.03;66.74;99371.97;2091753;28;46524;-65
2022/09/28 04:46:25;;;;;;;;;3.25;3.00;;;;;15.05;66.74;99372.72;2090874;28;48244;-64
2022/09/28 04:47:25;;;;;;;;;3.33;2.67;;;;;15.05;66.85;99371.88;2087359;28;46691;-65
2022/09/28 04:48:27;;;;;;;;;0.00;0.00;;;;;15.04;66.91;99367.50;2096385;28;46890;-67
2022/09/28 04:49:28;;;;;;;;;4.00;3.25;;;;;15.03;66.91;99369.31;2097483;28;46305;-65
2022/09/28 04:50:28;;;;;;;;;3.33;2.33;;;;;15.02;66.60;99371.13;2093505;28;46642;-65
2022/09/28 04:51:31;;;;;;;;;2.67;2.67;;;;;15.04;67.04;99370.16;2099589;28;45526;-65
2022/09/28 04:52:35;;;;;;;;;2.50;2.50;;;;;15.01;66.80;99372.06;2098710;28;45854;-65
2022/09/28 04:53:35;;;;;;;;;4.75;3.75;;;;;15.00;67.17;99375.69;2098663;28;46871;-66
2022/09/28 04:54:36;;;;;;;;;2.67;2.67;;;;;15.00;67.09;99370.34;2102533;28;46547;-67
2022/09/28 04:55:36;;;;;;;;;4.00;2.33;;;;;15.01;67.00;99374.75;2097785;28;46371;-66
2022/09/28 04:56:36;;;;;;;;;4.00;3.00;;;;;15.00;66.83;99372.16;2102226;28;46083;-66
2022/09/28 04:57:36;;;;;;;;;4.33;4.33;;;;;15.00;67.35;99378.38;2098951;28;46597;-65
2022/09/28 04:58:37;;;;;;;;;3.00;3.00;;;;;15.01;67.11;99373.88;2098925;28;46249;-65
2022/09/28 04:59:38;;;;;;;;;1.75;1.75;;;;;15.01;66.69;99372.06;2104478;28;46651;-65
2022/09/28 05:00:39;;;;;;;;;1.67;1.67;;;;;15.01;66.88;99366.72;2094585;28;46591;-65
2022/09/28 05:01:39;;;;;;;;;1.67;1.67;;;;;15.02;66.60;99367.59;2096087;28;46858;-64
2022/09/28 05:02:39;;;;;;;;;4.00;3.67;;;;;15.01;66.80;99364.06;2088781;28;46335;-64
2022/09/28 05:03:40;;;;;;;;;3.00;3.00;;;;;15.00;66.60;99375.69;2096240;28;46685;-64
2022/09/28 05:04:41;;;;;;;;;3.50;3.50;;;;;14.97;67.13;99375.84;2096325;28;47324;-66
2022/09/28 05:05:45;;;;;;;;;2.00;2.00;;;;;14.98;66.73;99374.03;2094122;28;46938;-64
2022/09/28 05:06:45;;;;;;;;;4.25;4.25;;;;;14.97;66.97;99370.50;2095752;28;46446;-63
2022/09/28 05:07:46;;;;;;;;;3.33;3.00;;;;;14.96;66.89;99370.63;2096012;28;46395;-63
2022/09/28 05:08:46;;;;;;;;;4.00;3.33;;;;;14.97;66.80;99375.00;2094530;28;46574;-65
2022/09/28 05:09:47;;;;;;;;;6.00;5.33;;;;;14.96;66.93;99371.47;2090114;28;46420;-66
2022/09/28 05:10:47;;;;;;;;;3.33;3.33;;;;;14.95;67.33;99356.41;2087174;28;45797;-64